This is the latest recevied weather packets stored in our database for station/object AD8IZ-13. If no packets are shown the sender has not sent any weather packets the latest 1 day(s).
| Time | Temp. | Humidity | Pressure | Rain* | Wind** | Luminosity | Snow |
|---|---|---|---|---|---|---|---|
| 1778031917 | 15° C | 98% | 1008 hPa | 1.27 mm | 0 m/s | 0 W/m² | - |
| 1778028919 | 15.56° C | 98% | 1007.7 hPa | 0.76 mm | 0 m/s | 0 W/m² | - |
| 1778028318 | 15.56° C | 98% | 1007.8 hPa | 0.51 mm | 0 m/s | 0 W/m² | - |
| 1778027718 | 15.56° C | 98% | 1007.9 hPa | 0.25 mm | 0 m/s | 0 W/m² | - |
| 1778027118 | 15.56° C | 98% | 1007.7 hPa | 0 mm | 0 m/s | 1 W/m² | - |
| 1778026519 | 15.56° C | 98% | 1007.7 hPa | 0 mm | 0 m/s | 3 W/m² | - |
| 1778025918 | 15.56° C | 98% | 1007.7 hPa | 0 mm | 0 m/s | 4 W/m² | - |
| 1778024719 | 15.56° C | 97% | 1007.7 hPa | 0.25 mm | 0 m/s | 11 W/m² | - |
| 1778023519 | 15.56° C | 97% | 1008 hPa | 1.02 mm | 0 m/s | 20 W/m² | - |
| 1778022921 | 15.56° C | 97% | 1008.1 hPa | 1.27 mm | 0 m/s | 21 W/m² | - |
| 1778022320 | 15.56° C | 96% | 1008.1 hPa | 1.52 mm | 0 m/s | 19 W/m² | - |
| 1778021720 | 15.56° C | 96% | 1008.1 hPa | 1.78 mm | 0 m/s | 18 W/m² | - |
| 1778021120 | 15.56° C | 96% | 1008.2 hPa | 3.05 mm | 0.45 m/s, 208° | 24 W/m² | - |
| 1778020517 | 15.56° C | 95% | 1008.2 hPa | 2.79 mm | 0.45 m/s, 267° | 29 W/m² | - |
| 1778019921 | 16.11° C | 95% | 1008.2 hPa | 2.29 mm | 0.45 m/s, 309° | 39 W/m² | - |
| 1778019322 | 16.11° C | 93% | 1008 hPa | 2.03 mm | 0.89 m/s, 332° | 43 W/m² | - |
| 1778018721 | 17.22° C | 90% | 1008 hPa | 1.78 mm | 0.89 m/s, 328° | 40 W/m² | - |
| 1778018126 | 20° C | 80% | 1007.7 hPa | 1.52 mm | 1.34 m/s, 337° | 17 W/m² | - |
| 1778017519 | 21.11° C | 66% | 1006.8 hPa | 0 mm | 1.34 m/s, 191° | 24 W/m² | - |
| 1778016922 | 21.11° C | 65% | 1006.7 hPa | 0 mm | 1.34 m/s, 184° | 63 W/m² | - |
| 1778016319 | 21.11° C | 65% | 1006.7 hPa | 0 mm | 1.79 m/s, 177° | 119 W/m² | - |
| 1778015719 | 21.67° C | 65% | 1006.6 hPa | 0 mm | 1.34 m/s, 185° | 210 W/m² | - |
| 1778015119 | 21.11° C | 65% | 1006.6 hPa | 0 mm | 1.34 m/s, 164° | 328 W/m² | - |
| 1778014521 | 21.11° C | 66% | 1006.9 hPa | 0 mm | 1.34 m/s, 177° | 260 W/m² | - |
| 1778013919 | 20.56° C | 66% | 1007 hPa | 0 mm | 1.34 m/s, 185° | 59 W/m² | - |
* Rain latest hour (hover to see other rain measurements)
** Current wind speed in m/s (hover to see current wind gust speed)